Portada
METAR-TAF:

METAR-TAF

Aeroports :

Arica, Xile

latitud: 18-20S, longitud: 070-20W, altitud: 58 m

Observació

L'informe es va fer fa 1 hora i 2 minuts, a les 22:00 UTC
Vent 10 kt del Sud/Sud-Oest
Temperatura 24°C
Humitat 65%
Pressió 1009 hPa
Visibilitat 10 km o més
sense núvols per sota de 1500 mi sense presència de cumulonimbus.

METAR: SCAR 262200Z 21010KT CAVOK 24/17 Q1009

Hora: 20:02 (23:02 UTC)

Pronòstic

L'informe es va fer fa 4 hores i 47 minuts, a les 18:15 UTC
Pronòstic vàlid del 26 a les 19 UTC al 27 a les 18 UTC
Vent 14 kt del Sud-Oest
Visibilitat 10 km o més
sense núvols per sota de 1500 mi sense presència de cumulonimbus.
Evolucionant progressivament
l' 26 a les 22 UTC al 26 a les 24 UTC
Vent 4 kt del Sud-Oest
Evolucionant progressivament
l' 27 a les 15 UTC al 27 a les 17 UTC
Vent 14 kt del Sud-Oest

TAF: SCAR 261815Z 2619/2718 22014KT CAVOK TX26/2619Z TN21/2706Z BECMG 2622/2624 22004KT BECMG 2715/2717 22014KT

Observacions i pronòstics meteorològics de més de 4000 aeroports (METAR i TAF).

Les estacions disponibles són els punts grocs i vermells al mapa.

Posi el ratolí al punt desitjat per veure el nom de l'estació.

Feu clic per veure les observacions i els pronòstics meteorològics.

Per canviar el mapa: feu clic els botons verds amb una creu de color negre per apropar; al botó verd amb un guió per allunyar la imatge; o en les fletxes verdes per a mapes adjacents.


METAR-TAF: